Time;durP1;ratioP1;P1;durP2;ratioP2;P2;SDS_P1;SDS_P2;PMS_P1;PMS_P2;Temp;Humidity;BMP_temperature;BMP_pressure;BME280_temperature;BME280_humidity;BME280_pressure;Samples;Min_cycle;Max_cycle;Signal;HPM_P1;HPM_P2
2022/12/06 00:02:07;;;;;;;64.00;23.73;;;;;;;;;;5114620;28;20414;-69
2022/12/06 00:04:32;;;;;;;84.15;23.83;;;;;;;;;;5114552;28;20038;-69
2022/12/06 00:06:58;;;;;;;73.28;24.67;;;;;;;;;;5114466;28;20389;-69
2022/12/06 00:09:30;;;;;;;57.83;24.38;;;;;;;;;;5114485;28;20470;-68
2022/12/06 00:11:56;;;;;;;59.15;23.80;;;;;;;;;;5111531;28;20431;-69
2022/12/06 00:14:22;;;;;;;62.45;22.90;;;;;;;;;;5114554;28;20019;-69
2022/12/06 00:16:48;;;;;;;57.42;23.27;;;;;;;;;;5114421;28;20480;-68
2022/12/06 00:19:20;;;;;;;59.97;22.75;;;;;;;;;;5114850;28;20020;-69
2022/12/06 00:21:46;;;;;;;65.18;22.60;;;;;;;;;;5114780;28;20038;-69
2022/12/06 00:24:20;;;;;;;54.95;22.13;;;;;;;;;;5114755;28;20533;-69
2022/12/06 00:26:47;;;;;;;51.13;22.83;;;;;;;;;;5114113;28;20024;-69
2022/12/06 00:29:16;;;;;;;59.60;22.35;;;;;;;;;;5114602;28;20103;-69
2022/12/06 00:31:42;;;;;;;61.45;22.92;;;;;;;;;;5114384;28;20043;-69
2022/12/06 00:34:07;;;;;;;52.25;21.27;;;;;;;;;;5114465;28;20034;-69
2022/12/06 00:36:35;;;;;;;59.53;22.90;;;;;;;;;;5114257;28;20067;-69
2022/12/06 00:39:04;;;;;;;54.72;21.77;;;;;;;;;;5114405;28;20063;-69
2022/12/06 00:41:29;;;;;;;73.93;23.27;;;;;;;;;;5114104;28;20110;-69
2022/12/06 00:43:55;;;;;;;80.13;24.50;;;;;;;;;;5114273;28;20111;-69
2022/12/06 00:46:23;;;;;;;70.75;23.13;;;;;;;;;;5114386;28;20553;-69
2022/12/06 00:48:50;;;;;;;65.45;22.60;;;;;;;;;;5113699;28;20081;-69
2022/12/06 00:51:17;;;;;;;69.78;23.02;;;;;;;;;;5113660;28;20027;-69
2022/12/06 00:53:43;;;;;;;75.18;24.00;;;;;;;;;;5113037;28;20027;-69
2022/12/06 00:56:10;;;;;;;57.95;23.55;;;;;;;;;;5112004;28;20022;-69
2022/12/06 00:58:35;;;;;;;77.57;23.50;;;;;;;;;;5113449;28;20020;-69
2022/12/06 01:01:36;;;;;;;56.40;23.88;;;;;;;;;;5113064;28;20165;-69
2022/12/06 01:04:04;;;;;;;67.60;23.25;;;;;;;;;;5107604;28;20589;-68
2022/12/06 01:06:32;;;;;;;64.65;22.40;;;;;;;;;;5113428;28;20524;-69
2022/12/06 01:09:01;;;;;;;58.05;23.63;;;;;;;;;;5113188;28;20038;-69
2022/12/06 01:11:27;;;;;;;53.53;22.45;;;;;;;;;;5110705;28;20118;-69
2022/12/06 01:13:53;;;;;;;52.65;21.20;;;;;;;;;;5113394;28;20394;-69
2022/12/06 01:16:23;;;;;;;51.50;21.25;;;;;;;;;;5113300;28;20039;-69
2022/12/06 01:18:52;;;;;;;50.87;21.67;;;;;;;;;;5110862;28;20547;-69
2022/12/06 01:21:19;;;;;;;46.95;19.83;;;;;;;;;;5113117;28;20023;-69
2022/12/06 01:26:23;;;;;;;42.65;19.15;;;;;;;;;;5111667;23;20062;-68
2022/12/06 01:28:49;;;;;;;42.33;19.88;;;;;;;;;;4990818;28;20084;-68
2022/12/06 01:31:14;;;;;;;38.67;19.75;;;;;;;;;;4992112;28;20026;-69
2022/12/06 01:33:40;;;;;;;50.05;20.20;;;;;;;;;;4991573;28;20053;-69
2022/12/06 01:36:06;;;;;;;38.35;17.98;;;;;;;;;;4992190;28;20034;-68
2022/12/06 01:38:32;;;;;;;39.08;19.65;;;;;;;;;;4992175;28;20033;-69
2022/12/06 01:40:57;;;;;;;44.03;20.33;;;;;;;;;;4992189;28;20473;-69
2022/12/06 01:43:34;;;;;;;40.15;19.33;;;;;;;;;;4993627;28;20037;-68
2022/12/06 01:46:27;;;;;;;45.67;20.17;;;;;;;;;;4992228;28;20030;-69
2022/12/06 01:49:19;;;;;;;39.15;18.67;;;;;;;;;;4992162;28;20384;-68
2022/12/06 01:51:53;;;;;;;42.55;19.73;;;;;;;;;;4989571;28;20045;-68
2022/12/06 01:54:20;;;;;;;39.33;19.38;;;;;;;;;;4992000;28;20022;-68
2022/12/06 01:56:46;;;;;;;38.53;19.55;;;;;;;;;;4992120;28;20373;-68
2022/12/06 01:59:12;;;;;;;40.63;18.65;;;;;;;;;;4992034;28;20038;-68
2022/12/06 02:01:39;;;;;;;37.50;18.98;;;;;;;;;;4992011;28;20463;-68
2022/12/06 02:04:05;;;;;;;39.75;18.23;;;;;;;;;;4992013;28;20492;-68
2022/12/06 02:06:31;;;;;;;38.17;18.23;;;;;;;;;;4991922;28;20034;-69
2022/12/06 02:09:03;;;;;;;35.33;17.23;;;;;;;;;;4991677;28;20033;-68
2022/12/06 02:11:29;;;;;;;40.75;19.60;;;;;;;;;;4991995;28;20403;-68
2022/12/06 02:13:55;;;;;;;35.65;17.85;;;;;;;;;;4993928;28;20023;-68
2022/12/06 02:16:52;;;;;;;35.22;17.80;;;;;;;;;;4996039;28;20022;-68
2022/12/06 02:19:32;;;;;;;35.03;17.55;;;;;;;;;;4993529;28;20120;-68
2022/12/06 02:22:14;;;;;;;42.08;18.42;;;;;;;;;;4993620;28;20030;-68
2022/12/06 02:25:01;;;;;;;36.63;17.85;;;;;;;;;;4993098;28;20057;-68
2022/12/06 02:27:54;;;;;;;34.67;16.90;;;;;;;;;;5008463;28;20038;-69
2022/12/06 02:30:42;;;;;;;37.72;17.50;;;;;;;;;;5013134;28;20046;-69
2022/12/06 02:33:20;;;;;;;35.38;17.02;;;;;;;;;;5012858;28;20045;-68
2022/12/06 02:35:58;;;;;;;35.78;17.58;;;;;;;;;;5012919;28;20030;-68
2022/12/06 02:38:38;;;;;;;34.78;17.58;;;;;;;;;;5012676;28;20029;-68
2022/12/06 02:41:11;;;;;;;39.25;18.38;;;;;;;;;;5012972;28;20029;-68
2022/12/06 02:43:42;;;;;;;37.00;18.40;;;;;;;;;;5012811;28;20484;-68
2022/12/06 02:46:10;;;;;;;38.25;17.45;;;;;;;;;;5012795;28;20064;-68
2022/12/06 02:48:36;;;;;;;34.88;17.38;;;;;;;;;;5012615;28;20491;-69
2022/12/06 02:51:07;;;;;;;34.55;16.88;;;;;;;;;;5012803;28;20025;-69
2022/12/06 02:53:37;;;;;;;35.80;17.20;;;;;;;;;;5012639;28;20095;-69
2022/12/06 02:56:03;;;;;;;33.58;16.55;;;;;;;;;;5013635;28;20070;-68
2022/12/06 02:58:37;;;;;;;34.40;17.52;;;;;;;;;;5014777;28;20439;-68
2022/12/06 03:01:11;;;;;;;36.10;16.63;;;;;;;;;;5004073;28;20477;-68
2022/12/06 03:03:55;;;;;;;33.95;17.17;;;;;;;;;;4995159;28;20029;-69
2022/12/06 03:06:33;;;;;;;32.25;15.63;;;;;;;;;;4994839;28;20026;-68
2022/12/06 03:09:17;;;;;;;28.13;14.70;;;;;;;;;;4995107;28;20026;-68
2022/12/06 03:12:04;;;;;;;28.55;14.27;;;;;;;;;;4993830;28;20483;-69
2022/12/06 03:14:42;;;;;;;26.40;14.45;;;;;;;;;;4994962;28;20555;-68
2022/12/06 03:17:28;;;;;;;27.65;14.85;;;;;;;;;;4994982;28;20036;-68
2022/12/06 03:20:00;;;;;;;26.88;13.88;;;;;;;;;;4994675;28;20041;-68
2022/12/06 03:22:32;;;;;;;24.65;13.73;;;;;;;;;;4994651;28;20034;-68
2022/12/06 03:24:58;;;;;;;27.50;14.05;;;;;;;;;;4994442;28;20096;-69
2022/12/06 03:27:26;;;;;;;30.27;14.57;;;;;;;;;;4992057;28;20057;-69
2022/12/06 03:29:58;;;;;;;23.52;12.60;;;;;;;;;;4975308;28;20027;-68
2022/12/06 03:32:28;;;;;;;24.90;13.93;;;;;;;;;;4975059;28;20031;-69
2022/12/06 03:34:56;;;;;;;25.50;14.18;;;;;;;;;;4975066;28;20015;-68
2022/12/06 03:37:23;;;;;;;23.35;12.48;;;;;;;;;;4975323;28;20052;-68
2022/12/06 03:40:20;;;;;;;25.13;13.48;;;;;;;;;;4975056;28;20046;-68
2022/12/06 03:42:47;;;;;;;23.33;12.85;;;;;;;;;;4972512;28;20074;-68
2022/12/06 03:45:13;;;;;;;24.25;12.45;;;;;;;;;;4972580;28;20026;-68
2022/12/06 03:48:02;;;;;;;23.70;12.50;;;;;;;;;;4972571;28;20118;-68
2022/12/06 03:50:32;;;;;;;19.40;10.77;;;;;;;;;;4972286;28;20130;-69
2022/12/06 03:53:00;;;;;;;18.85;11.27;;;;;;;;;;4972301;28;20094;-69
2022/12/06 03:55:25;;;;;;;16.65;9.68;;;;;;;;;;4972435;28;20486;-68
2022/12/06 03:57:51;;;;;;;16.27;9.65;;;;;;;;;;4972424;28;20038;-68
2022/12/06 04:00:16;;;;;;;18.08;10.10;;;;;;;;;;5000310;28;20490;-69
2022/12/06 04:02:42;;;;;;;16.88;9.32;;;;;;;;;;5011195;28;20029;-69
2022/12/06 04:05:08;;;;;;;16.33;9.88;;;;;;;;;;5011010;28;20030;-68
2022/12/06 04:07:33;;;;;;;17.77;11.13;;;;;;;;;;5011120;28;20096;-68
2022/12/06 04:10:02;;;;;;;39.33;22.52;;;;;;;;;;5011220;28;20468;-69
2022/12/06 04:15:13;;;;;;;31.80;18.38;;;;;;;;;;5011088;28;20113;-69
2022/12/06 04:20:26;;;;;;;32.55;19.88;;;;;;;;;;5013022;28;20583;-68
2022/12/06 04:23:05;;;;;;;34.40;20.42;;;;;;;;;;5013395;28;20481;-68
2022/12/06 04:25:35;;;;;;;23.70;12.25;;;;;;;;;;5012916;28;20077;-69
2022/12/06 04:38:57;;;;;;;17.40;9.82;;;;;;;;;;4974347;28;20042;-68
2022/12/06 04:44:07;;;;;;;15.48;9.55;;;;;;;;;;4974224;28;20109;-69
2022/12/06 04:46:33;;;;;;;13.23;7.97;;;;;;;;;;4973771;28;20022;-68
2022/12/06 04:48:58;;;;;;;14.10;8.48;;;;;;;;;;4973470;28;20470;-69
2022/12/06 04:51:24;;;;;;;11.88;7.65;;;;;;;;;;4973767;28;20034;-68
2022/12/06 04:53:50;;;;;;;12.77;7.80;;;;;;;;;;4973712;28;20034;-68
2022/12/06 04:56:16;;;;;;;14.50;7.20;;;;;;;;;;4973718;28;20023;-68
2022/12/06 04:58:42;;;;;;;11.65;7.50;;;;;;;;;;4973581;28;20057;-68
2022/12/06 05:01:08;;;;;;;12.23;7.15;;;;;;;;;;4973554;28;20430;-68
2022/12/06 05:03:34;;;;;;;10.73;6.80;;;;;;;;;;4973379;28;20067;-68
2022/12/06 05:05:59;;;;;;;13.52;7.80;;;;;;;;;;4973486;28;20086;-68
2022/12/06 05:08:25;;;;;;;11.27;7.10;;;;;;;;;;4973447;28;20109;-69
2022/12/06 05:10:50;;;;;;;11.10;7.05;;;;;;;;;;4973491;28;20031;-69
2022/12/06 05:13:16;;;;;;;11.93;7.22;;;;;;;;;;4973060;28;20053;-69
2022/12/06 05:16:08;;;;;;;10.00;6.80;;;;;;;;;;4973284;28;20030;-69
2022/12/06 05:18:34;;;;;;;13.45;7.38;;;;;;;;;;4972432;28;20462;-69
2022/12/06 05:21:21;;;;;;;10.68;6.80;;;;;;;;;;4973201;28;20106;-69
2022/12/06 05:23:47;;;;;;;12.10;7.72;;;;;;;;;;4973088;28;20054;-69
2022/12/06 05:26:16;;;;;;;14.50;7.90;;;;;;;;;;4972997;28;20090;-69
2022/12/06 05:28:42;;;;;;;12.48;8.80;;;;;;;;;;4998851;28;20164;-69
2022/12/06 05:31:08;;;;;;;12.80;7.72;;;;;;;;;;5011846;28;20113;-69
2022/12/06 05:33:34;;;;;;;15.20;8.23;;;;;;;;;;5011964;28;20394;-68
2022/12/06 05:36:08;;;;;;;12.43;7.97;;;;;;;;;;5012102;28;20052;-69
2022/12/06 05:38:34;;;;;;;13.32;10.15;;;;;;;;;;5011921;28;20057;-68
2022/12/06 05:41:00;;;;;;;11.98;7.78;;;;;;;;;;5011936;28;20065;-69
2022/12/06 05:43:26;;;;;;;10.95;7.00;;;;;;;;;;5011995;28;20044;-69
2022/12/06 05:45:52;;;;;;;12.77;7.13;;;;;;;;;;5011637;28;20026;-68
2022/12/06 05:48:18;;;;;;;11.73;7.22;;;;;;;;;;5011836;28;20116;-68
2022/12/06 05:50:45;;;;;;;11.10;7.45;;;;;;;;;;5010521;28;20072;-69
2022/12/06 05:53:11;;;;;;;13.55;6.68;;;;;;;;;;5011740;28;20472;-69
2022/12/06 05:55:36;;;;;;;10.25;6.57;;;;;;;;;;5011786;28;20041;-68
2022/12/06 05:58:02;;;;;;;11.02;6.97;;;;;;;;;;5011762;28;20025;-68
2022/12/06 06:00:28;;;;;;;9.20;6.05;;;;;;;;;;5011422;28;20088;-68
2022/12/06 06:02:53;;;;;;;10.73;6.45;;;;;;;;;;5011561;28;20026;-68
2022/12/06 06:05:19;;;;;;;9.50;6.43;;;;;;;;;;5011613;28;20137;-69
2022/12/06 06:07:45;;;;;;;10.68;6.38;;;;;;;;;;5011513;28;20030;-68
2022/12/06 06:10:11;;;;;;;11.20;6.70;;;;;;;;;;5011435;28;20112;-68
2022/12/06 06:12:36;;;;;;;10.82;6.30;;;;;;;;;;5011442;28;20468;-68
2022/12/06 06:15:05;;;;;;;10.20;6.55;;;;;;;;;;5011275;28;20080;-68
2022/12/06 06:17:32;;;;;;;9.90;6.18;;;;;;;;;;5011309;28;20029;-69
2022/12/06 06:19:58;;;;;;;9.80;6.18;;;;;;;;;;5011302;28;20021;-69
2022/12/06 06:22:23;;;;;;;11.00;5.82;;;;;;;;;;5011231;28;20495;-69
2022/12/06 06:24:50;;;;;;;10.35;5.88;;;;;;;;;;5010955;28;20050;-69
2022/12/06 06:27:16;;;;;;;12.07;6.75;;;;;;;;;;5007999;28;20473;-68
2022/12/06 06:29:41;;;;;;;17.08;8.52;;;;;;;;;;4971939;28;20086;-68
2022/12/06 06:32:07;;;;;;;10.85;6.47;;;;;;;;;;4971917;28;20034;-68
2022/12/06 06:34:32;;;;;;;12.90;6.78;;;;;;;;;;4972085;28;20421;-68
2022/12/06 06:36:57;;;;;;;12.80;7.20;;;;;;;;;;4972218;28;20026;-68
2022/12/06 06:39:23;;;;;;;13.00;7.53;;;;;;;;;;4972249;28;20434;-69
2022/12/06 06:41:48;;;;;;;20.55;10.10;;;;;;;;;;4972081;28;20109;-68
2022/12/06 06:44:14;;;;;;;13.63;7.35;;;;;;;;;;4971692;28;20019;-68
2022/12/06 06:46:39;;;;;;;13.35;7.90;;;;;;;;;;4972058;28;20085;-68
2022/12/06 06:49:05;;;;;;;13.63;7.68;;;;;;;;;;4971691;28;20125;-68
2022/12/06 06:51:31;;;;;;;14.38;7.43;;;;;;;;;;4971855;28;20027;-68
2022/12/06 06:53:57;;;;;;;17.10;7.30;;;;;;;;;;4971955;28;20038;-68
2022/12/06 06:56:23;;;;;;;12.60;7.32;;;;;;;;;;4971700;28;20027;-68
2022/12/06 06:58:48;;;;;;;11.75;6.72;;;;;;;;;;4971859;28;20031;-68
2022/12/06 07:01:19;;;;;;;11.90;6.85;;;;;;;;;;4975684;28;20031;-68
2022/12/06 07:03:45;;;;;;;11.20;6.93;;;;;;;;;;4975601;28;20031;-68
2022/12/06 07:06:11;;;;;;;10.00;6.05;;;;;;;;;;4975655;28;20393;-68
2022/12/06 07:08:38;;;;;;;11.52;7.03;;;;;;;;;;4975554;28;20031;-68
2022/12/06 07:11:04;;;;;;;11.18;6.60;;;;;;;;;;4975653;28;20133;-68
2022/12/06 07:13:30;;;;;;;10.35;6.35;;;;;;;;;;4975339;28;20113;-68
2022/12/06 07:15:57;;;;;;;9.15;6.47;;;;;;;;;;4973816;28;20118;-68
2022/12/06 07:18:24;;;;;;;15.80;7.57;;;;;;;;;;4975300;28;20030;-68
2022/12/06 07:21:02;;;;;;;12.00;6.68;;;;;;;;;;4975270;28;20654;-68
2022/12/06 07:23:28;;;;;;;9.90;6.18;;;;;;;;;;4975326;28;20034;-68
2022/12/06 07:26:05;;;;;;;9.73;6.10;;;;;;;;;;4975223;28;20432;-67
2022/12/06 07:28:33;;;;;;;11.57;6.32;;;;;;;;;;4997587;28;20061;-68
2022/12/06 07:31:16;;;;;;;11.98;6.93;;;;;;;;;;5014297;28;20069;-68
2022/12/06 07:33:42;;;;;;;10.80;6.40;;;;;;;;;;5013910;28;20037;-68
2022/12/06 07:36:09;;;;;;;11.98;7.78;;;;;;;;;;5014093;28;20627;-68
2022/12/06 07:38:34;;;;;;;11.45;7.07;;;;;;;;;;5013958;28;20033;-68
2022/12/06 07:46:41;;;;;;;13.27;7.25;;;;;;;;;;5011844;28;20045;-68
2022/12/06 07:49:07;;;;;;;14.38;7.38;;;;;;;;;;5011439;28;20038;-68
2022/12/06 07:51:33;;;;;;;12.93;7.88;;;;;;;;;;5011380;28;20034;-68
2022/12/06 07:53:59;;;;;;;12.85;7.05;;;;;;;;;;5011318;28;20064;-68
2022/12/06 07:56:25;;;;;;;11.35;7.07;;;;;;;;;;5011121;28;20853;-68
2022/12/06 07:58:51;;;;;;;10.55;6.35;;;;;;;;;;5011343;28;20080;-68
2022/12/06 08:01:17;;;;;;;10.52;6.63;;;;;;;;;;5011399;28;20527;-68
2022/12/06 08:03:42;;;;;;;9.07;6.00;;;;;;;;;;5011260;28;20045;-68
2022/12/06 08:06:08;;;;;;;10.02;5.78;;;;;;;;;;5011253;28;20108;-68
2022/12/06 08:08:34;;;;;;;8.68;6.00;;;;;;;;;;5011014;28;20045;-68
2022/12/06 08:11:01;;;;;;;10.75;6.32;;;;;;;;;;5009842;28;20030;-68
2022/12/06 08:13:27;;;;;;;9.00;5.82;;;;;;;;;;5010752;28;20038;-68
2022/12/06 08:15:53;;;;;;;8.93;5.13;;;;;;;;;;5011140;28;20060;-68
2022/12/06 08:18:19;;;;;;;7.80;5.20;;;;;;;;;;5010997;28;20109;-68
2022/12/06 08:20:44;;;;;;;9.35;5.50;;;;;;;;;;5011868;28;20539;-68
2022/12/06 08:23:10;;;;;;;18.52;10.05;;;;;;;;;;5013260;28;20056;-68
2022/12/06 08:25:35;;;;;;;11.45;6.80;;;;;;;;;;5012781;28;20057;-68
2022/12/06 08:28:01;;;;;;;10.35;5.72;;;;;;;;;;4997845;28;20046;-68
2022/12/06 08:30:26;;;;;;;12.57;7.55;;;;;;;;;;4973990;28;20031;-68
2022/12/06 08:32:52;;;;;;;31.88;17.45;;;;;;;;;;4972635;28;20061;-68
2022/12/06 08:35:17;;;;;;;24.75;11.77;;;;;;;;;;4973925;28;20085;-68
2022/12/06 08:37:43;;;;;;;11.82;5.80;;;;;;;;;;4973621;28;20540;-68
2022/12/06 08:40:09;;;;;;;10.90;5.90;;;;;;;;;;4973752;28;20023;-68
2022/12/06 08:42:34;;;;;;;8.98;5.85;;;;;;;;;;4973815;28;20030;-68
2022/12/06 08:45:01;;;;;;;9.27;5.78;;;;;;;;;;4973717;28;20139;-68
2022/12/06 08:47:26;;;;;;;9.43;5.47;;;;;;;;;;4973634;28;20118;-68
2022/12/06 08:49:52;;;;;;;10.30;5.78;;;;;;;;;;4973502;28;20037;-68
2022/12/06 08:52:17;;;;;;;10.18;5.78;;;;;;;;;;4973661;28;20114;-68
2022/12/06 08:54:43;;;;;;;8.57;5.15;;;;;;;;;;4973469;28;20042;-67
2022/12/06 08:57:08;;;;;;;15.45;6.07;;;;;;;;;;4973617;28;20030;-67
2022/12/06 08:59:34;;;;;;;15.25;6.40;;;;;;;;;;4973623;28;20505;-68
2022/12/06 09:01:59;;;;;;;15.05;6.25;;;;;;;;;;4973706;28;20048;-68
2022/12/06 09:04:26;;;;;;;13.60;6.18;;;;;;;;;;4989348;28;20046;-68
2022/12/06 09:06:52;;;;;;;8.57;4.97;;;;;;;;;;4993215;28;20030;-68
2022/12/06 09:09:17;;;;;;;23.45;8.32;;;;;;;;;;4993373;28;20393;-68
2022/12/06 09:11:44;;;;;;;12.00;5.35;;;;;;;;;;4993808;28;20034;-68
2022/12/06 09:14:13;;;;;;;40.55;13.80;;;;;;;;;;4993840;28;20131;-68
2022/12/06 09:16:42;;;;;;;28.98;9.73;;;;;;;;;;4993267;28;20391;-67
2022/12/06 09:19:08;;;;;;;17.48;6.35;;;;;;;;;;4993753;28;20034;-68
2022/12/06 09:21:34;;;;;;;9.23;4.20;;;;;;;;;;4993682;28;20038;-68
2022/12/06 09:24:00;;;;;;;7.63;4.45;;;;;;;;;;4993554;28;20466;-68
2022/12/06 09:26:26;;;;;;;7.95;3.78;;;;;;;;;;4993271;28;20042;-69
2022/12/06 09:28:53;;;;;;;11.57;5.88;;;;;;;;;;4978870;28;20100;-68
2022/12/06 09:31:19;;;;;;;35.25;14.18;;;;;;;;;;4974183;28;20027;-69
2022/12/06 09:33:45;;;;;;;12.32;6.28;;;;;;;;;;4974158;28;20042;-69
2022/12/06 09:36:27;;;;;;;13.77;6.50;;;;;;;;;;4978469;28;20481;-68
2022/12/06 09:39:15;;;;;;;8.32;4.20;;;;;;;;;;4993314;28;20034;-68
2022/12/06 09:42:05;;;;;;;23.42;7.88;;;;;;;;;;4993380;28;20030;-68
2022/12/06 09:44:48;;;;;;;11.98;5.15;;;;;;;;;;4993100;28;20031;-68
2022/12/06 09:47:51;;;;;;;39.50;11.45;;;;;;;;;;4992869;28;20576;-69
2022/12/06 09:50:53;;;;;;;193.38;38.53;;;;;;;;;;4993202;28;20037;-69
2022/12/06 09:53:36;;;;;;;38.55;12.00;;;;;;;;;;4993065;28;20113;-69
2022/12/06 09:56:26;;;;;;;102.82;21.90;;;;;;;;;;4993342;28;20054;-69
2022/12/06 09:59:10;;;;;;;66.95;16.38;;;;;;;;;;4993222;28;20084;-69
2022/12/06 10:01:52;;;;;;;33.97;13.48;;;;;;;;;;4992995;28;20113;-69
2022/12/06 10:04:47;;;;;;;19.30;8.18;;;;;;;;;;4993091;28;20363;-70
2022/12/06 10:07:36;;;;;;;53.92;15.57;;;;;;;;;;4992494;28;20026;-69
2022/12/06 10:10:35;;;;;;;39.00;14.73;;;;;;;;;;4993191;28;20058;-69
2022/12/06 10:13:07;;;;;;;49.05;16.48;;;;;;;;;;4988554;28;20026;-69
2022/12/06 10:15:51;;;;;;;11.07;4.78;;;;;;;;;;4973600;28;20029;-69
2022/12/06 10:18:19;;;;;;;14.27;5.43;;;;;;;;;;4973355;28;20029;-69
2022/12/06 10:20:52;;;;;;;26.05;10.93;;;;;;;;;;4973595;28;20035;-69
2022/12/06 10:23:53;;;;;;;19.63;8.40;;;;;;;;;;4973515;28;20023;-69
2022/12/06 10:26:51;;;;;;;23.58;9.27;;;;;;;;;;4970801;28;20046;-69
2022/12/06 10:29:28;;;;;;;46.33;15.25;;;;;;;;;;5001129;28;20050;-69
2022/12/06 10:31:56;;;;;;;82.13;19.90;;;;;;;;;;4990466;28;20109;-69
2022/12/06 10:34:40;;;;;;;40.75;14.50;;;;;;;;;;4991355;28;20034;-69
2022/12/06 10:37:15;;;;;;;13.63;6.60;;;;;;;;;;4994362;28;20446;-69
2022/12/06 10:40:11;;;;;;;7.43;4.13;;;;;;;;;;4994466;28;20473;-69
2022/12/06 10:42:41;;;;;;;9.80;4.75;;;;;;;;;;4977921;28;20161;-69
2022/12/06 10:47:02;;;;;;;25.30;9.75;;;;;;;;;;4994463;28;20038;-70
2022/12/06 10:47:57;;;;;;;10.55;4.55;;;;;;;;;;4994214;28;20481;-69
2022/12/06 10:50:28;;;;;;;15.20;5.97;;;;;;;;;;4993733;28;20057;-69
2022/12/06 10:53:02;;;;;;;29.55;9.68;;;;;;;;;;4994222;28;20302;-69
2022/12/06 10:55:43;;;;;;;27.23;9.63;;;;;;;;;;4994177;28;20555;-69
2022/12/06 10:58:26;;;;;;;6.70;3.80;;;;;;;;;;4994210;28;20153;-69
2022/12/06 11:00:57;;;;;;;17.73;6.63;;;;;;;;;;4994219;28;20034;-69
2022/12/06 11:03:55;;;;;;;10.57;4.18;;;;;;;;;;5003602;28;20125;-69
2022/12/06 11:06:26;;;;;;;8.77;4.65;;;;;;;;;;4973849;28;20181;-69
2022/12/06 11:08:56;;;;;;;12.65;7.20;;;;;;;;;;4974448;28;20039;-69
2022/12/06 11:11:28;;;;;;;11.00;6.22;;;;;;;;;;4974573;28;20510;-69
2022/12/06 11:14:00;;;;;;;26.20;9.45;;;;;;;;;;4974678;28;20046;-69
2022/12/06 11:16:36;;;;;;;8.52;4.82;;;;;;;;;;4974322;28;20537;-69
2022/12/06 11:19:33;;;;;;;8.63;4.05;;;;;;;;;;4974066;28;20114;-69
2022/12/06 11:22:33;;;;;;;23.60;9.82;;;;;;;;;;4974308;28;20291;-69
2022/12/06 11:25:10;;;;;;;6.28;4.43;;;;;;;;;;4968663;28;20078;-69
2022/12/06 11:27:45;;;;;;;7.43;4.30;;;;;;;;;;4977921;28;20117;-69
2022/12/06 11:30:16;;;;;;;9.05;4.28;;;;;;;;;;4993486;28;20045;-69
2022/12/06 11:32:43;;;;;;;16.98;6.20;;;;;;;;;;4993528;28;20121;-69
2022/12/06 11:35:14;;;;;;;20.73;7.97;;;;;;;;;;4993271;28;20503;-69
2022/12/06 11:37:42;;;;;;;21.52;6.93;;;;;;;;;;4993288;28;20042;-69
2022/12/06 11:40:21;;;;;;;39.22;9.43;;;;;;;;;;4993502;28;20040;-69
2022/12/06 11:42:46;;;;;;;31.38;10.10;;;;;;;;;;4993906;28;20520;-69
2022/12/06 11:45:25;;;;;;;21.95;7.07;;;;;;;;;;4995319;28;20038;-69
2022/12/06 11:47:56;;;;;;;102.15;32.22;;;;;;;;;;4995348;28;20117;-69
2022/12/06 11:50:23;;;;;;;23.55;8.48;;;;;;;;;;4995348;28;20076;-69
2022/12/06 11:52:54;;;;;;;44.75;15.23;;;;;;;;;;4995235;28;20120;-69
2022/12/06 11:55:26;;;;;;;18.65;7.43;;;;;;;;;;4995321;28;20030;-69
2022/12/06 11:58:26;;;;;;;46.95;14.20;;;;;;;;;;4995277;28;20159;-69
2022/12/06 12:01:04;;;;;;;11.85;5.20;;;;;;;;;;4994568;28;20110;-69
2022/12/06 12:03:41;;;;;;;5.05;2.80;;;;;;;;;;4995297;28;20397;-69
2022/12/06 12:06:15;;;;;;;13.88;5.82;;;;;;;;;;4994926;28;20473;-70
2022/12/06 12:08:55;;;;;;;4.78;2.75;;;;;;;;;;4995070;28;20038;-69
2022/12/06 12:11:23;;;;;;;6.43;3.40;;;;;;;;;;4995003;28;20072;-69
2022/12/06 12:13:53;;;;;;;10.88;4.50;;;;;;;;;;4994691;28;20038;-69
2022/12/06 12:16:32;;;;;;;11.53;5.33;;;;;;;;;;4994696;28;20030;-70
2022/12/06 12:19:03;;;;;;;6.88;3.20;;;;;;;;;;4983449;28;20026;-69
2022/12/06 12:21:40;;;;;;;19.02;8.23;;;;;;;;;;4975193;28;20053;-69
2022/12/06 12:24:48;;;;;;;8.50;4.95;;;;;;;;;;4975137;28;20050;-69
2022/12/06 12:27:43;;;;;;;16.60;7.47;;;;;;;;;;4976272;28;20489;-69
2022/12/06 12:30:20;;;;;;;15.68;7.47;;;;;;;;;;4994044;28;20046;-69
2022/12/06 12:32:47;;;;;;;31.20;10.32;;;;;;;;;;4994201;28;20036;-70
2022/12/06 12:35:19;;;;;;;24.95;10.25;;;;;;;;;;4994427;28;20022;-70
2022/12/06 12:37:45;;;;;;;13.85;6.80;;;;;;;;;;4994396;28;20034;-69
2022/12/06 12:40:36;;;;;;;26.13;10.15;;;;;;;;;;4994471;28;20027;-69
2022/12/06 12:43:14;;;;;;;8.32;4.40;;;;;;;;;;4994236;28;20030;-69
2022/12/06 12:46:05;;;;;;;7.32;4.53;;;;;;;;;;4994244;28;20050;-69
2022/12/06 12:48:31;;;;;;;12.25;7.13;;;;;;;;;;4994412;28;20504;-68
2022/12/06 12:51:02;;;;;;;22.30;9.63;;;;;;;;;;4992794;28;20045;-68
2022/12/06 12:53:39;;;;;;;23.98;10.10;;;;;;;;;;4994230;28;20065;-68
2022/12/06 12:56:17;;;;;;;23.90;9.77;;;;;;;;;;4984049;28;20039;-67
2022/12/06 12:58:45;;;;;;;10.73;5.78;;;;;;;;;;4974210;28;20038;-68
2022/12/06 13:01:23;;;;;;;19.40;6.47;;;;;;;;;;4974117;28;20066;-68
2022/12/06 13:03:58;;;;;;;10.40;6.05;;;;;;;;;;4974657;28;20038;-68
2022/12/06 13:06:45;;;;;;;12.95;8.48;;;;;;;;;;4974455;28;20077;-68
2022/12/06 13:09:21;;;;;;;11.45;6.75;;;;;;;;;;4974392;28;20053;-68
2022/12/06 13:11:52;;;;;;;5.18;3.10;;;;;;;;;;4974347;28;20031;-68
2022/12/06 13:14:20;;;;;;;3.78;2.45;;;;;;;;;;4974217;28;20027;-68
2022/12/06 13:16:50;;;;;;;3.50;2.30;;;;;;;;;;4974197;28;20445;-68
2022/12/06 13:19:19;;;;;;;4.68;2.88;;;;;;;;;;4974218;28;20073;-68
2022/12/06 13:21:46;;;;;;;7.57;4.63;;;;;;;;;;4974184;28;20039;-68
2022/12/06 13:24:11;;;;;;;12.43;5.63;;;;;;;;;;4974001;28;20030;-69
2022/12/06 13:27:02;;;;;;;9.30;5.60;;;;;;;;;;4990385;28;20051;-68
2022/12/06 13:29:37;;;;;;;13.77;6.47;;;;;;;;;;4982823;28;20064;-69
2022/12/06 13:32:20;;;;;;;17.35;7.07;;;;;;;;;;4993300;28;20034;-68
2022/12/06 13:35:15;;;;;;;42.60;12.32;;;;;;;;;;4993266;28;20327;-68
2022/12/06 13:37:52;;;;;;;10.98;5.78;;;;;;;;;;4993481;28;20022;-69
2022/12/06 13:40:38;;;;;;;14.88;6.82;;;;;;;;;;4993189;28;20026;-68
2022/12/06 13:43:22;;;;;;;21.48;9.05;;;;;;;;;;4993277;28;20027;-68
2022/12/06 13:45:49;;;;;;;15.50;7.95;;;;;;;;;;4993078;28;20030;-68
2022/12/06 13:48:24;;;;;;;10.23;5.40;;;;;;;;;;4993203;28;20469;-69
2022/12/06 13:51:02;;;;;;;8.32;4.60;;;;;;;;;;4993178;28;20450;-68
2022/12/06 13:53:33;;;;;;;5.05;3.15;;;;;;;;;;4993138;28;20034;-68
2022/12/06 13:56:21;;;;;;;6.45;3.80;;;;;;;;;;4993203;28;20098;-69
2022/12/06 13:58:53;;;;;;;5.10;2.78;;;;;;;;;;4992857;28;20030;-68
2022/12/06 14:01:48;;;;;;;3.55;2.30;;;;;;;;;;4993184;28;20116;-68
2022/12/06 14:04:23;;;;;;;3.58;2.30;;;;;;;;;;4992224;28;20050;-69
2022/12/06 14:06:51;;;;;;;3.22;2.05;;;;;;;;;;4992877;28;20125;-68
2022/12/06 14:09:17;;;;;;;3.13;2.30;;;;;;;;;;4992172;28;20046;-68
2022/12/06 14:11:43;;;;;;;3.78;1.90;;;;;;;;;;4992832;28;20065;-69
2022/12/06 14:14:18;;;;;;;3.60;2.30;;;;;;;;;;4992516;28;20027;-69
2022/12/06 14:16:59;;;;;;;2.85;1.90;;;;;;;;;;4992960;28;20035;-68
2022/12/06 14:19:27;;;;;;;4.32;2.33;;;;;;;;;;4992931;28;20030;-69
2022/12/06 14:21:55;;;;;;;3.95;2.67;;;;;;;;;;4992884;28;20028;-68
2022/12/06 14:24:34;;;;;;;3.72;2.80;;;;;;;;;;4992546;28;20112;-69
2022/12/06 14:27:15;;;;;;;5.45;3.67;;;;;;;;;;4992800;28;20042;-68
2022/12/06 14:29:43;;;;;;;5.22;3.42;;;;;;;;;;4973162;28;20132;-69
2022/12/06 14:32:09;;;;;;;4.03;2.85;;;;;;;;;;4973199;28;20089;-69
2022/12/06 14:34:35;;;;;;;5.72;3.00;;;;;;;;;;4973370;28;20482;-69
2022/12/06 14:37:17;;;;;;;4.55;2.80;;;;;;;;;;4973343;28;20049;-69
2022/12/06 14:39:51;;;;;;;13.32;6.10;;;;;;;;;;4973189;28;20031;-68
2022/12/06 14:45:03;;;;;;;20.77;8.60;;;;;;;;;;4973214;28;20086;-68
2022/12/06 14:47:30;;;;;;;38.15;16.02;;;;;;;;;;4973103;28;20069;-68
2022/12/06 14:52:57;;;;;;;53.72;24.40;;;;;;;;;;4973397;28;20034;-68
2022/12/06 14:55:23;;;;;;;17.45;9.25;;;;;;;;;;4972948;28;20026;-68
2022/12/06 14:57:59;;;;;;;14.75;6.10;;;;;;;;;;4973019;28;20429;-69
2022/12/06 15:00:35;;;;;;;7.28;3.60;;;;;;;;;;4972944;28;20110;-68
2022/12/06 15:03:12;;;;;;;23.42;6.63;;;;;;;;;;4973051;28;20501;-68
2022/12/06 15:05:40;;;;;;;25.27;6.63;;;;;;;;;;4973108;28;20113;-69
2022/12/06 15:08:24;;;;;;;17.92;5.72;;;;;;;;;;4972612;28;20022;-68
2022/12/06 15:10:58;;;;;;;8.40;3.90;;;;;;;;;;4972897;28;20504;-68
2022/12/06 15:13:24;;;;;;;5.03;2.95;;;;;;;;;;4973111;28;20031;-69
2022/12/06 15:16:08;;;;;;;4.85;3.25;;;;;;;;;;4972992;28;20081;-68
2022/12/06 15:18:39;;;;;;;4.90;3.13;;;;;;;;;;4972935;28;20028;-68
2022/12/06 15:21:16;;;;;;;9.40;4.13;;;;;;;;;;4974561;28;20433;-68
2022/12/06 15:23:47;;;;;;;9.32;5.03;;;;;;;;;;4976284;28;20114;-68
2022/12/06 15:26:13;;;;;;;16.75;7.85;;;;;;;;;;4975664;28;20046;-68
2022/12/06 15:28:39;;;;;;;19.65;9.15;;;;;;;;;;5001175;28;20026;-68
2022/12/06 15:31:12;;;;;;;14.70;8.88;;;;;;;;;;5015117;28;20026;-68